Deane, Kentucky
Current Conditions -  °F | °C
As of 10:35 PM on Monday 22 Dec 2014 (Local Time) from KLNP Reporting Station
Overcast Overcast  
Wind Chill: 42°   Ceiling: 12000
Heat Index: 46°   Visibility: 10mi
Dew Point: 37°   Wind: 9mph
Humidity: 71%   Direction: 160°SSE
Pressure: 29.87"   Gusts: NA
Location:  37.24°N, 82.78°W
Report Text: KLNP 230335Z AUTO 16008KT 10SM SCT090 OVC120 08/03 A2987 RMK AO2
Loading
Personal Weather Stations






























Interactive Weather Map New forecast layout! Learn more

10-Day Weather Forecast

Advertisements
Track Severe Weather on mobile